createdAt,value
2018-04-11T06:04:40.414Z,46.20
2018-04-11T06:07:42.899Z,45.50
2018-04-11T06:10:45.375Z,44.00
2018-04-11T06:13:47.850Z,43.00
2018-04-11T06:16:50.370Z,42.70
2018-04-11T06:19:52.854Z,42.60
2018-04-11T06:22:55.336Z,43.80
2018-04-11T06:25:57.796Z,44.10
2018-04-11T06:29:00.249Z,44.90
2018-04-11T06:32:03.482Z,45.90
2018-04-11T06:35:05.957Z,45.50
2018-04-11T06:38:09.157Z,47.20
2018-04-11T06:41:11.610Z,47.20
2018-04-11T06:44:14.073Z,49.10
2018-04-11T06:47:17.321Z,50.90
2018-04-11T06:50:19.757Z,50.80
2018-04-11T06:53:22.217Z,51.70
2018-04-11T06:56:25.445Z,51.30
2018-04-11T06:59:27.942Z,51.20
2018-04-11T07:02:30.370Z,49.20
2018-04-11T07:05:33.611Z,44.70
2018-04-11T07:08:36.046Z,44.60
2018-04-11T07:11:39.268Z,42.40
2018-04-11T07:14:41.715Z,42.40
2018-04-11T07:17:44.946Z,42.50
2018-04-11T07:20:47.401Z,42.40
2018-04-11T07:23:49.877Z,42.50
2018-04-11T07:26:52.325Z,43.00
2018-04-11T07:29:55.733Z,45.80
2018-04-11T07:32:58.184Z,48.10
2018-04-11T07:36:00.637Z,48.20
2018-04-11T07:39:03.098Z,47.00
2018-04-11T07:42:05.570Z,47.30
2018-04-11T07:45:08.006Z,48.00
2018-04-11T07:48:11.229Z,51.40
2018-04-11T07:51:13.678Z,51.30
2018-04-11T07:54:16.920Z,53.70
2018-04-11T07:57:19.378Z,54.30
2018-04-11T08:00:21.825Z,54.10
2018-04-11T08:03:25.091Z,55.80
2018-04-11T08:06:27.510Z,55.40
2018-04-11T08:09:30.742Z,55.50
2018-04-11T08:12:33.230Z,55.50
2018-04-11T08:15:35.675Z,55.50
2018-04-11T08:18:38.137Z,55.70
2018-04-11T08:21:41.355Z,56.00
2018-04-11T08:24:43.810Z,56.00
2018-04-11T08:27:46.282Z,55.80
2018-04-11T08:30:49.494Z,56.00
2018-04-11T08:33:51.953Z,55.90
2018-04-11T08:36:55.174Z,55.10
2018-04-11T08:39:57.630Z,55.00
2018-04-11T08:43:00.094Z,54.70
2018-04-11T08:46:03.333Z,55.20
2018-04-11T08:49:05.797Z,55.20
2018-04-11T08:52:15.678Z,54.40
2018-04-11T08:55:18.125Z,54.20
2018-04-11T08:58:20.594Z,54.10
2018-04-11T09:01:23.065Z,54.40
2018-04-11T09:04:25.554Z,52.90
2018-04-11T09:07:28.750Z,53.10
2018-04-11T09:10:31.206Z,53.10
2018-04-11T09:13:33.670Z,52.10
2018-04-11T09:16:36.927Z,51.70
2018-04-11T09:19:39.416Z,51.70
2018-04-11T09:22:41.890Z,51.70
2018-04-11T09:25:44.299Z,51.60
2018-04-11T09:32:30.134Z,54.10
2018-04-11T09:35:32.610Z,54.00
2018-04-11T09:38:35.078Z,54.60
2018-04-11T09:41:38.294Z,53.80
2018-04-11T09:44:40.761Z,53.80
2018-04-11T09:47:44.133Z,53.60
2018-04-11T09:50:47.454Z,53.70
2018-04-11T09:53:49.962Z,53.50
2018-04-11T09:56:52.543Z,51.80
2018-04-11T09:59:55.306Z,50.40
2018-04-11T10:03:11.385Z,50.90
2018-04-11T10:06:13.978Z,49.60
2018-04-11T10:09:16.421Z,51.80
2018-04-11T10:12:19.642Z,52.50
2018-04-11T10:15:22.107Z,51.80
2018-04-11T10:18:24.565Z,52.30
2018-04-11T10:21:27.010Z,52.30
2018-04-11T10:24:30.706Z,51.90
2018-04-11T10:27:33.177Z,51.60
2018-04-11T10:30:35.619Z,51.80
2018-04-11T10:33:38.090Z,52.60
2018-04-11T10:36:41.295Z,53.50
2018-04-11T10:39:43.810Z,53.30
2018-04-11T10:42:46.982Z,53.50
2018-04-11T10:45:49.437Z,53.50
2018-04-11T10:48:52.658Z,54.60
2018-04-11T10:51:55.128Z,54.60
2018-04-11T10:54:57.577Z,54.90
2018-04-11T10:58:00.801Z,55.20
2018-04-11T11:01:03.255Z,55.20
2018-04-11T11:04:05.715Z,55.40
2018-04-11T11:07:08.930Z,55.30
2018-04-11T11:10:11.410Z,55.30
2018-04-11T11:13:13.884Z,55.90
2018-04-11T11:16:16.330Z,57.50
2018-04-11T11:19:18.810Z,58.00
2018-04-11T11:22:21.255Z,58.70
2018-04-11T11:25:23.721Z,59.10
2018-04-11T11:28:26.176Z,60.20
2018-04-11T11:31:28.624Z,61.10
2018-04-11T11:34:31.858Z,62.90
2018-04-11T11:37:34.319Z,62.80
2018-04-11T11:40:36.782Z,62.70
2018-04-11T11:43:39.245Z,64.40
2018-04-11T11:46:42.469Z,64.50
2018-04-11T11:49:44.935Z,64.50
2018-04-11T11:52:47.382Z,65.70
2018-04-11T11:55:49.862Z,66.00
2018-04-11T11:58:52.321Z,66.50
2018-04-11T12:01:54.794Z,67.20
2018-04-11T12:05:02.015Z,68.80
2018-04-11T12:08:05.257Z,70.40
2018-04-11T12:11:08.778Z,71.20
2018-04-11T12:14:11.243Z,71.00
2018-04-11T12:17:13.698Z,70.60
2018-04-11T12:20:16.162Z,69.40
2018-04-11T12:23:18.626Z,68.60
2018-04-11T12:26:21.086Z,68.70
2018-04-11T12:29:23.541Z,68.50
2018-04-11T12:32:25.993Z,67.40
2018-04-11T12:35:28.458Z,67.50
2018-04-11T12:38:30.916Z,67.40
2018-04-11T12:41:33.365Z,67.70
2018-04-11T12:44:35.845Z,68.70
2018-04-11T12:47:38.302Z,68.60
2018-04-11T12:50:41.539Z,71.20
2018-04-11T12:53:44.745Z,70.50
2018-04-11T12:56:47.194Z,70.50
2018-04-11T12:59:50.414Z,70.20
2018-04-11T13:02:52.874Z,70.20
2018-04-11T13:05:56.092Z,68.10
2018-04-11T13:08:58.545Z,68.00
2018-04-11T13:12:01.762Z,68.50
2018-04-11T13:15:04.242Z,68.50
2018-04-11T13:18:06.717Z,66.60
2018-04-11T13:21:09.202Z,66.50
2018-04-11T13:24:11.662Z,66.90
2018-04-11T13:27:14.117Z,65.60
2018-04-11T13:30:17.351Z,65.60
2018-04-11T13:33:19.813Z,65.50
2018-04-11T13:36:22.281Z,66.60
2018-04-11T13:39:24.750Z,66.80
2018-04-11T13:42:27.970Z,67.10
2018-04-11T13:45:30.435Z,67.10
2018-04-11T13:48:32.893Z,66.60
2018-04-11T13:51:36.127Z,66.20
2018-04-11T13:54:38.584Z,66.10
2018-04-11T13:57:41.047Z,65.70
2018-04-11T14:00:44.283Z,67.80
2018-04-11T14:03:46.746Z,67.80
2018-04-11T14:06:49.197Z,68.50
2018-04-11T14:09:51.654Z,65.30
2018-04-11T14:12:54.877Z,64.10
2018-04-11T14:15:57.337Z,63.70
2018-04-11T14:19:00.565Z,63.10
2018-04-11T14:22:03.025Z,63.10
2018-04-11T14:25:05.469Z,61.50
2018-04-11T14:28:07.926Z,60.50
2018-04-11T14:31:10.389Z,59.20
2018-04-11T14:34:12.858Z,59.60
2018-04-11T14:37:15.317Z,59.90
2018-04-11T14:40:17.768Z,59.50
2018-04-11T14:43:20.993Z,61.00
2018-04-11T14:46:23.442Z,61.00
2018-04-11T14:49:25.906Z,59.20
2018-04-11T14:52:29.129Z,60.20
2018-04-11T14:55:31.581Z,60.10
2018-04-11T14:58:34.798Z,59.40
2018-04-11T15:01:42.258Z,59.30
2018-04-11T15:04:44.710Z,59.80
2018-04-11T15:07:47.162Z,60.10
2018-04-11T15:10:49.626Z,59.80
2018-04-11T15:13:52.070Z,60.10
2018-04-11T15:16:55.296Z,60.60
2018-04-11T15:19:57.749Z,60.60
2018-04-11T15:23:00.969Z,61.00
2018-04-11T15:26:03.428Z,61.00
2018-04-11T15:29:06.650Z,60.00
2018-04-11T15:32:09.114Z,60.00
2018-04-11T15:35:11.570Z,60.00
2018-04-11T15:38:14.827Z,58.70
2018-04-11T15:41:17.278Z,58.70
2018-04-11T15:44:19.737Z,59.20
2018-04-11T15:47:22.178Z,59.60
2018-04-11T15:50:24.642Z,59.90
2018-04-11T15:53:27.094Z,59.10
2018-04-11T15:56:29.546Z,59.20
2018-04-11T15:59:32.002Z,59.80
2018-04-11T16:02:35.220Z,59.90
2018-04-11T16:05:37.670Z,59.90
2018-04-11T16:08:40.910Z,60.00
2018-04-11T16:11:43.390Z,60.00
2018-04-11T16:14:45.850Z,60.40
2018-04-11T16:17:48.312Z,58.90
2018-04-11T16:20:50.759Z,58.50
2018-04-11T16:23:53.207Z,57.90
2018-04-11T16:26:55.653Z,58.10
2018-04-11T16:29:58.116Z,58.40
2018-04-11T16:33:00.557Z,59.00
2018-04-11T16:36:03.022Z,59.10
2018-04-11T16:39:05.466Z,59.30
2018-04-11T16:42:07.930Z,59.70
2018-04-11T16:45:10.387Z,59.80
2018-04-11T16:48:13.602Z,61.10
2018-04-11T16:51:16.108Z,61.10
2018-04-11T16:54:18.558Z,61.10
2018-04-11T16:57:21.009Z,61.50
2018-04-11T17:00:24.242Z,62.90
2018-04-11T17:03:26.698Z,62.70
2018-04-11T17:06:29.154Z,62.90
2018-04-11T17:09:32.388Z,63.60
2018-04-11T17:12:34.821Z,63.50
2018-04-11T17:15:38.053Z,64.20
2018-04-11T17:18:40.501Z,64.10
2018-04-11T17:21:55.477Z,64.10
2018-04-11T17:25:10.529Z,64.30
2018-04-11T17:28:25.751Z,64.40
2018-04-11T17:31:30.141Z,64.20
2018-04-11T17:34:33.357Z,64.20
2018-04-11T17:37:35.820Z,64.20
2018-04-11T17:40:38.279Z,64.10
2018-04-11T17:47:19.658Z,64.00
2018-04-11T17:50:22.106Z,63.80
2018-04-11T17:53:24.553Z,63.90
2018-04-11T17:56:27.027Z,63.60
2018-04-11T17:59:30.234Z,63.90
2018-04-11T18:02:32.691Z,63.70
2018-04-11T18:05:35.922Z,63.80
2018-04-11T18:08:38.369Z,63.80
2018-04-11T18:11:40.837Z,63.70
2018-04-11T18:14:44.062Z,63.70
2018-04-11T18:17:46.518Z,63.60
2018-04-11T18:20:48.985Z,63.90
2018-04-11T18:23:52.224Z,64.20
2018-04-11T18:26:54.683Z,64.10
2018-04-11T18:29:57.176Z,64.20
2018-04-11T18:32:59.601Z,64.10
2018-04-11T18:36:02.819Z,66.50
2018-04-11T18:39:05.273Z,65.40
2018-04-11T18:42:07.742Z,69.30
2018-04-11T18:45:10.206Z,71.20
2018-04-11T18:48:12.662Z,73.60
2018-04-11T18:51:15.123Z,74.70
2018-04-11T18:54:17.580Z,75.10
2018-04-11T18:57:20.029Z,75.80
2018-04-11T19:00:22.482Z,76.20
2018-04-11T19:03:24.951Z,76.20
2018-04-11T19:06:27.402Z,76.20
2018-04-11T19:09:29.849Z,76.40
2018-04-11T19:12:33.074Z,76.70
2018-04-11T19:15:35.542Z,76.60
2018-04-11T19:18:38.035Z,76.60
2018-04-11T19:21:40.626Z,76.70
2018-04-11T19:24:43.133Z,76.80
2018-04-11T19:27:58.085Z,76.80
2018-04-11T19:31:00.546Z,76.80
2018-04-11T19:34:03.274Z,76.20
2018-04-11T19:37:06.578Z,75.40
2018-04-11T19:40:09.843Z,75.40
2018-04-11T19:43:12.318Z,75.40
2018-04-11T19:46:14.785Z,75.20
2018-04-11T19:49:17.241Z,75.20
2018-04-11T19:52:19.708Z,75.10
2018-04-11T19:55:22.158Z,74.80
2018-04-11T19:58:25.386Z,73.50
2018-04-11T20:01:27.848Z,73.50
2018-04-11T20:04:30.293Z,73.20
2018-04-11T20:07:33.525Z,72.20
2018-04-11T20:10:35.970Z,72.10
2018-04-11T20:13:59.913Z,72.60
2018-04-11T20:17:02.372Z,72.60
2018-04-11T20:20:04.833Z,72.80
2018-04-11T20:23:07.291Z,73.00
2018-04-11T20:26:10.530Z,72.80
2018-04-11T20:29:12.972Z,72.70
2018-04-11T20:32:15.433Z,72.20
2018-04-11T20:35:18.650Z,71.30
2018-04-11T20:38:21.132Z,71.20
2018-04-11T20:41:23.582Z,70.80
2018-04-11T20:44:26.801Z,71.70
2018-04-11T20:47:29.267Z,71.60
2018-04-11T20:50:31.733Z,72.00
2018-04-11T20:53:34.957Z,72.70
2018-04-11T20:56:37.422Z,72.70
2018-04-11T20:59:39.888Z,72.50
2018-04-11T21:02:43.109Z,71.90
2018-04-11T21:05:45.570Z,71.90
2018-04-11T21:08:48.039Z,71.70
2018-04-11T21:11:51.258Z,71.80
2018-04-11T21:14:53.722Z,71.80
2018-04-11T21:17:56.185Z,72.20
2018-04-11T21:20:58.634Z,72.60
2018-04-11T21:24:01.094Z,73.20
2018-04-11T21:27:03.558Z,74.00
2018-04-11T21:30:06.018Z,74.30
2018-04-11T21:33:08.478Z,74.50
2018-04-11T21:36:10.969Z,74.70
2018-04-11T21:39:14.167Z,74.80
2018-04-11T21:42:16.626Z,74.60
2018-04-11T21:45:19.073Z,74.80
2018-04-11T21:48:26.981Z,74.60
2018-04-11T21:51:30.189Z,75.10
2018-04-11T21:54:32.657Z,74.60
2018-04-11T21:57:35.878Z,74.70
2018-04-11T22:00:38.331Z,74.70
2018-04-11T22:03:41.545Z,74.40
2018-04-11T22:06:44.016Z,74.40
2018-04-11T22:09:46.463Z,74.50
2018-04-11T22:12:48.931Z,74.90
2018-04-11T22:15:51.382Z,75.20
2018-04-11T22:18:53.841Z,75.50
2018-04-11T22:21:56.301Z,75.60
2018-04-11T22:24:58.754Z,76.60
2018-04-11T22:28:01.221Z,76.10
2018-04-11T22:31:03.669Z,76.20
2018-04-11T22:34:06.134Z,76.10
2018-04-11T22:37:08.591Z,76.00
2018-04-11T22:40:11.062Z,76.00
2018-04-11T22:43:14.264Z,76.20
2018-04-11T22:46:16.736Z,76.20
2018-04-11T22:49:19.218Z,76.30
2018-04-11T22:52:21.684Z,76.50
2018-04-11T22:55:24.134Z,76.50
2018-04-11T22:58:26.588Z,76.50
2018-04-11T23:01:29.042Z,76.40
2018-04-11T23:04:31.498Z,76.50
2018-04-11T23:07:33.974Z,76.60
2018-04-11T23:10:36.433Z,76.70
2018-04-11T23:13:39.672Z,76.70
2018-04-11T23:16:42.122Z,76.60
2018-04-11T23:19:44.597Z,76.80
2018-04-11T23:22:47.037Z,77.20
2018-04-11T23:25:49.482Z,76.80
2018-04-11T23:28:51.950Z,77.00
2018-04-11T23:31:54.405Z,77.20
2018-04-11T23:34:56.866Z,77.30
2018-04-11T23:37:59.319Z,77.20
2018-04-11T23:41:01.770Z,77.50
2018-04-11T23:44:04.230Z,77.50
2018-04-11T23:47:06.693Z,77.50
2018-04-11T23:50:09.146Z,77.50
2018-04-11T23:53:11.607Z,78.00
2018-04-11T23:56:14.058Z,77.70
2018-04-11T23:59:16.626Z,77.80
